Time;durP1;ratioP1;P1;durP2;ratioP2;P2;SDS_P1;SDS_P2;PMS_P1;PMS_P2;Temp;Humidity;BMP_temperature;BMP_pressure;BME280_temperature;BME280_humidity;BME280_pressure;Samples;Min_cycle;Max_cycle;Signal;HPM_P1;HPM_P2
2023/08/25 00:00:37;;;;;;;9.63;5.38;;;20.00;99.90;;;;;;5073347;28;20536;-63
2023/08/25 00:03:03;;;;;;;9.07;5.68;;;20.00;99.90;;;;;;5054606;28;20498;-63
2023/08/25 00:05:29;;;;;;;6.70;5.20;;;20.00;99.90;;;;;;5055239;28;20045;-63
2023/08/25 00:07:55;;;;;;;6.55;5.45;;;20.00;99.90;;;;;;5064891;28;20044;-62
2023/08/25 00:10:22;;;;;;;12.13;6.43;;;20.00;99.90;;;;;;5062275;28;20386;-62
2023/08/25 00:12:49;;;;;;;14.25;6.57;;;19.90;99.90;;;;;;5070945;28;20067;-62
2023/08/25 00:15:15;;;;;;;11.52;6.95;;;20.00;99.90;;;;;;5071981;28;20067;-63
2023/08/25 00:17:40;;;;;;;8.85;6.82;;;19.90;99.90;;;;;;5038049;28;20542;-63
2023/08/25 00:20:10;;;;;;;10.77;7.15;;;19.90;99.90;;;;;;5040568;28;20056;-62
2023/08/25 00:22:36;;;;;;;10.02;6.22;;;20.00;99.90;;;;;;5054943;28;20054;-62
2023/08/25 00:25:03;;;;;;;9.00;6.82;;;19.90;99.90;;;;;;5072798;28;20120;-63
2023/08/25 00:27:28;;;;;;;8.40;6.68;;;19.90;99.90;;;;;;5072009;28;20091;-63
2023/08/25 00:29:54;;;;;;;8.13;6.90;;;19.90;99.90;;;;;;5055186;28;20137;-63
2023/08/25 00:32:20;;;;;;;13.10;7.07;;;19.90;99.90;;;;;;5071649;28;20040;-63
2023/08/25 00:34:46;;;;;;;10.07;7.82;;;19.90;99.90;;;;;;5072698;28;20050;-63
2023/08/25 00:37:11;;;;;;;10.50;7.50;;;19.80;99.90;;;;;;5070294;28;20051;-63
2023/08/25 00:39:38;;;;;;;9.48;7.57;;;19.80;99.90;;;;;;5073343;28;20397;-63
2023/08/25 00:42:04;;;;;;;11.93;7.40;;;19.80;99.90;;;;;;5072260;28;20044;-63
2023/08/25 00:44:30;;;;;;;10.75;7.57;;;19.80;99.90;;;;;;5072408;28;20437;-63
2023/08/25 00:46:56;;;;;;;9.90;7.47;;;19.80;99.90;;;;;;5072609;28;20040;-63
2023/08/25 00:49:22;;;;;;;9.48;7.70;;;19.70;99.90;;;;;;5071752;28;20102;-63
2023/08/25 00:51:50;;;;;;;10.07;6.82;;;19.70;99.90;;;;;;5071864;28;20052;-63
2023/08/25 00:54:16;;;;;;;8.98;7.40;;;19.70;99.90;;;;;;5058289;28;20478;-63
2023/08/25 00:56:42;;;;;;;9.15;7.32;;;19.60;99.90;;;;;;5059618;28;20055;-63
2023/08/25 00:59:08;;;;;;;7.28;6.38;;;19.60;99.90;;;;;;5069258;28;20051;-63
2023/08/25 01:01:35;;;;;;;11.93;5.82;;;19.60;99.90;;;;;;5069029;28;20048;-63
2023/08/25 01:04:02;;;;;;;8.07;6.60;;;19.60;99.90;;;;;;5051463;28;20048;-63
2023/08/25 01:06:27;;;;;;;7.25;5.95;;;19.50;99.90;;;;;;5068689;28;20087;-63
2023/08/25 01:08:53;;;;;;;11.32;5.75;;;19.50;99.90;;;;;;5069234;28;20525;-63
2023/08/25 01:11:34;;;;;;;9.32;6.68;;;19.40;99.90;;;;;;5050673;28;20051;-63
2023/08/25 01:14:29;;;;;;;7.35;5.90;;;19.50;99.90;;;;;;5051283;28;20494;-63
2023/08/25 01:17:12;;;;;;;7.05;5.97;;;19.40;99.90;;;;;;5069730;28;20380;-62
2023/08/25 01:19:57;;;;;;;12.50;6.43;;;19.40;99.90;;;;;;5068400;28;20388;-63
2023/08/25 01:22:50;;;;;;;10.60;6.28;;;19.40;99.90;;;;;;5057583;28;20079;-62
2023/08/25 01:25:30;;;;;;;8.02;5.85;;;19.40;99.90;;;;;;5058105;28;20048;-62
2023/08/25 01:28:01;;;;;;;8.85;5.40;;;19.30;99.90;;;;;;5068316;28;20036;-63
2023/08/25 01:30:31;;;;;;;9.25;5.40;;;19.30;99.90;;;;;;5084685;28;20053;-63
2023/08/25 01:33:00;;;;;;;5.72;4.90;;;19.30;99.90;;;;;;5068490;28;20036;-63
2023/08/25 01:35:46;;;;;;;10.65;6.88;;;19.30;99.90;;;;;;5069979;28;20040;-62
2023/08/25 01:38:24;;;;;;;7.20;5.78;;;19.30;99.90;;;;;;5068715;28;20229;-62
2023/08/25 01:41:10;;;;;;;10.00;7.13;;;19.30;99.90;;;;;;5067991;28;20102;-62
2023/08/25 01:43:39;;;;;;;9.55;7.82;;;19.30;99.90;;;;;;5056015;28;20454;-63
2023/08/25 01:46:09;;;;;;;11.07;7.55;;;19.20;99.90;;;;;;5067210;28;20509;-63
2023/08/25 01:48:36;;;;;;;8.13;7.28;;;19.30;99.90;;;;;;5069222;28;20489;-63
2023/08/25 01:51:02;;;;;;;7.90;6.78;;;19.30;99.90;;;;;;5066496;28;20464;-62
2023/08/25 01:53:29;;;;;;;10.05;7.32;;;19.40;99.90;;;;;;5067739;28;20509;-63
2023/08/25 01:55:55;;;;;;;9.52;6.93;;;19.40;99.90;;;;;;5068861;28;20048;-62
2023/08/25 01:58:21;;;;;;;13.63;7.18;;;19.40;99.90;;;;;;5067118;28;20063;-63
2023/08/25 02:00:46;;;;;;;11.70;7.95;;;19.40;99.90;;;;;;5082430;28;20044;-63
2023/08/25 02:03:13;;;;;;;14.10;8.32;;;19.40;99.90;;;;;;5067264;28;20036;-63
2023/08/25 02:05:40;;;;;;;11.23;7.93;;;19.50;99.90;;;;;;5066131;28;20149;-63
2023/08/25 02:08:07;;;;;;;12.90;8.23;;;19.50;99.90;;;;;;5066761;28;20056;-63
2023/08/25 02:10:33;;;;;;;12.63;8.57;;;19.40;99.90;;;;;;5062242;28;20052;-63
2023/08/25 02:12:58;;;;;;;11.38;8.68;;;19.50;99.90;;;;;;5050356;28;20086;-62
2023/08/25 02:15:24;;;;;;;11.55;8.68;;;19.50;99.90;;;;;;5066736;28;20068;-63
2023/08/25 02:17:50;;;;;;;12.73;8.52;;;19.50;99.90;;;;;;5050377;28;20456;-62
2023/08/25 02:20:16;;;;;;;14.70;9.43;;;19.50;99.90;;;;;;5066436;28;20061;-62
2023/08/25 02:22:41;;;;;;;18.17;9.63;;;19.50;99.90;;;;;;5068762;28;20048;-62
2023/08/25 02:25:07;;;;;;;12.73;9.80;;;19.50;99.90;;;;;;5066799;28;20044;-62
2023/08/25 02:27:33;;;;;;;14.93;9.82;;;19.50;99.90;;;;;;5068011;28;20044;-62
2023/08/25 02:29:59;;;;;;;13.38;8.80;;;19.40;99.90;;;;;;5067744;28;20032;-62
2023/08/25 02:32:24;;;;;;;11.65;8.15;;;19.40;99.90;;;;;;5066630;28;20064;-62
2023/08/25 02:34:50;;;;;;;11.50;8.07;;;19.40;99.90;;;;;;5053815;28;20032;-62
2023/08/25 02:37:16;;;;;;;10.88;8.07;;;19.40;99.90;;;;;;5082249;28;20123;-63
2023/08/25 02:39:41;;;;;;;10.45;8.73;;;19.40;99.90;;;;;;5067931;28;20369;-62
2023/08/25 02:42:07;;;;;;;11.95;8.55;;;19.40;99.90;;;;;;5080479;28;20044;-62
2023/08/25 02:44:33;;;;;;;12.23;8.50;;;19.40;99.90;;;;;;5067783;28;20044;-63
2023/08/25 02:46:59;;;;;;;12.77;8.43;;;19.30;99.90;;;;;;5066578;28;20067;-63
2023/08/25 02:49:24;;;;;;;10.57;8.35;;;19.40;99.90;;;;;;5067531;28;20045;-63
2023/08/25 02:51:50;;;;;;;10.75;8.65;;;19.30;99.90;;;;;;5067795;28;20033;-62
2023/08/25 02:54:16;;;;;;;11.60;8.45;;;19.30;99.90;;;;;;5065977;28;20055;-63
2023/08/25 02:56:41;;;;;;;14.35;7.78;;;19.30;99.90;;;;;;5068006;28;20098;-63
2023/08/25 02:59:07;;;;;;;13.18;8.65;;;19.30;99.90;;;;;;5066197;28;20079;-63
2023/08/25 03:01:33;;;;;;;11.15;9.05;;;19.30;99.90;;;;;;5049216;28;20334;-62
2023/08/25 03:03:59;;;;;;;13.48;10.57;;;19.30;99.90;;;;;;5066242;28;20044;-63
2023/08/25 03:06:24;;;;;;;13.45;10.00;;;19.30;99.90;;;;;;5066737;28;20051;-63
2023/08/25 03:08:50;;;;;;;13.82;10.70;;;19.30;99.90;;;;;;5065232;28;20036;-62
2023/08/25 03:11:16;;;;;;;13.43;11.07;;;19.30;99.90;;;;;;5053183;28;20044;-62
2023/08/25 03:13:42;;;;;;;20.17;10.40;;;19.30;99.90;;;;;;5069849;28;20487;-63
2023/08/25 03:16:07;;;;;;;14.40;10.98;;;19.30;99.90;;;;;;5067622;28;20052;-62
2023/08/25 03:18:34;;;;;;;16.83;11.93;;;19.30;99.90;;;;;;5066959;28;20044;-62
2023/08/25 03:20:59;;;;;;;20.20;11.85;;;19.20;99.90;;;;;;5065204;28;20048;-63
2023/08/25 03:23:25;;;;;;;17.55;12.77;;;19.30;99.90;;;;;;5067155;28;20118;-62
2023/08/25 03:25:51;;;;;;;15.98;11.20;;;19.30;99.90;;;;;;5065532;28;20043;-63
2023/08/25 03:28:17;;;;;;;19.92;12.50;;;19.20;99.90;;;;;;5068396;28;20445;-62
2023/08/25 03:30:42;;;;;;;19.20;12.32;;;19.20;99.90;;;;;;5074681;28;20143;-62
2023/08/25 03:33:08;;;;;;;19.05;12.88;;;19.30;99.90;;;;;;5052507;28;20464;-63
2023/08/25 03:35:35;;;;;;;18.13;11.55;;;19.20;99.90;;;;;;5065657;28;20067;-62
2023/08/25 03:38:02;;;;;;;15.48;12.57;;;19.30;99.90;;;;;;5047719;28;20520;-63
2023/08/25 03:40:27;;;;;;;17.88;12.23;;;19.20;99.90;;;;;;5048725;28;20052;-62
2023/08/25 03:42:53;;;;;;;16.00;12.25;;;19.30;99.90;;;;;;5065106;28;20059;-62
2023/08/25 03:45:19;;;;;;;16.48;11.88;;;19.30;99.90;;;;;;5066492;28;20044;-62
2023/08/25 03:47:45;;;;;;;15.60;13.20;;;19.30;99.90;;;;;;5066239;28;20051;-62
2023/08/25 03:50:10;;;;;;;18.38;13.20;;;19.30;99.90;;;;;;5065698;28;20060;-62
2023/08/25 03:52:36;;;;;;;15.48;12.55;;;19.30;99.90;;;;;;5066477;28;20041;-62
2023/08/25 03:55:03;;;;;;;16.33;11.90;;;19.30;99.90;;;;;;5065858;28;20048;-63
2023/08/25 03:57:29;;;;;;;12.48;11.18;;;19.30;99.90;;;;;;5082094;28;20048;-63
2023/08/25 03:59:54;;;;;;;16.65;12.45;;;19.30;99.90;;;;;;5065350;28;20051;-62
2023/08/25 04:02:20;;;;;;;16.40;12.43;;;19.30;99.90;;;;;;5066177;28;20033;-62
2023/08/25 04:04:46;;;;;;;14.02;11.85;;;19.30;99.90;;;;;;5065674;28;20131;-63
2023/08/25 04:07:13;;;;;;;14.45;11.60;;;19.30;99.90;;;;;;5066673;28;20045;-62
2023/08/25 04:09:39;;;;;;;13.35;11.68;;;19.30;99.90;;;;;;5037709;28;20047;-62
2023/08/25 04:12:05;;;;;;;21.02;12.38;;;19.30;99.90;;;;;;5059169;28;20044;-63
2023/08/25 04:14:31;;;;;;;16.52;13.48;;;19.30;99.90;;;;;;5048407;28;20167;-62
2023/08/25 04:16:57;;;;;;;22.67;12.80;;;19.30;99.90;;;;;;5065700;28;20122;-62
2023/08/25 04:19:22;;;;;;;15.07;13.15;;;19.30;99.90;;;;;;5065701;28;20499;-62
2023/08/25 04:21:48;;;;;;;16.98;12.48;;;19.30;99.90;;;;;;5047006;28;20049;-62
2023/08/25 04:24:17;;;;;;;20.55;13.77;;;19.30;99.90;;;;;;5066752;28;20059;-62
2023/08/25 04:26:43;;;;;;;19.05;13.23;;;19.20;99.90;;;;;;5047494;28;20052;-62
2023/08/25 04:29:09;;;;;;;21.60;12.90;;;19.30;99.90;;;;;;5066172;28;20051;-62
2023/08/25 04:31:36;;;;;;;18.45;13.45;;;19.20;99.90;;;;;;5067428;28;20036;-62
2023/08/25 04:34:02;;;;;;;18.08;12.25;;;19.30;99.90;;;;;;5068987;28;20080;-62
2023/08/25 04:36:27;;;;;;;21.55;13.70;;;19.30;99.90;;;;;;5070104;28;20435;-62
2023/08/25 04:38:53;;;;;;;15.30;12.88;;;19.30;99.90;;;;;;5069088;28;20044;-62
2023/08/25 04:41:19;;;;;;;18.52;13.30;;;19.20;99.90;;;;;;5069803;28;20087;-63
2023/08/25 04:43:45;;;;;;;20.42;12.95;;;19.20;99.90;;;;;;5068919;28;20585;-63
2023/08/25 04:46:12;;;;;;;19.17;12.00;;;19.20;99.90;;;;;;5070276;28;20045;-63
2023/08/25 04:48:39;;;;;;;19.02;12.45;;;19.20;99.90;;;;;;5084612;28;20040;-62
2023/08/25 04:51:04;;;;;;;14.57;12.07;;;19.20;99.90;;;;;;5068556;28;20067;-62
2023/08/25 04:53:30;;;;;;;16.40;11.38;;;19.20;99.90;;;;;;5063458;28;20550;-62
2023/08/25 04:55:56;;;;;;;15.75;11.80;;;19.20;99.90;;;;;;5039062;28;20036;-63
2023/08/25 04:58:21;;;;;;;15.00;12.43;;;19.20;99.90;;;;;;5058136;28;20045;-62
2023/08/25 05:00:50;;;;;;;16.33;12.45;;;19.20;99.90;;;;;;5058733;28;20051;-63
2023/08/25 05:03:16;;;;;;;15.35;12.32;;;19.20;99.90;;;;;;5062630;28;20075;-63
2023/08/25 05:05:42;;;;;;;17.55;13.23;;;19.20;99.90;;;;;;5060652;28;20076;-62
2023/08/25 05:08:07;;;;;;;19.55;13.10;;;19.20;99.90;;;;;;5055695;28;20091;-62
2023/08/25 05:10:34;;;;;;;23.55;13.82;;;19.20;99.90;;;;;;5053747;28;20047;-63
2023/08/25 05:12:59;;;;;;;18.05;13.45;;;19.30;99.90;;;;;;5068213;28;20049;-62
2023/08/25 05:15:25;;;;;;;17.88;13.00;;;19.20;99.90;;;;;;5069760;28;20052;-63
2023/08/25 05:17:51;;;;;;;15.50;12.18;;;19.30;99.90;;;;;;5067872;28;20080;-62
2023/08/25 05:20:20;;;;;;;21.25;12.27;;;19.20;99.90;;;;;;5069757;28;20060;-62
2023/08/25 05:22:47;;;;;;;19.58;12.48;;;19.30;99.90;;;;;;5067899;28;20127;-62
2023/08/25 05:25:14;;;;;;;17.85;14.00;;;19.30;99.90;;;;;;5069436;28;20052;-62
2023/08/25 05:27:40;;;;;;;21.70;13.88;;;19.30;99.90;;;;;;5069044;28;20347;-62
2023/08/25 05:30:06;;;;;;;23.25;15.82;;;19.40;99.90;;;;;;5066917;28;20119;-63
2023/08/25 05:32:32;;;;;;;27.42;17.02;;;19.40;99.90;;;;;;5034109;28;20059;-62
2023/08/25 05:34:58;;;;;;;21.23;16.08;;;19.40;99.90;;;;;;5057800;28;20052;-63
2023/08/25 05:37:23;;;;;;;22.70;15.57;;;19.40;99.90;;;;;;5053912;28;20036;-62
2023/08/25 05:39:49;;;;;;;26.30;16.48;;;19.40;99.90;;;;;;5067246;28;20494;-62
2023/08/25 05:42:16;;;;;;;21.88;15.63;;;19.40;99.90;;;;;;5051090;28;20045;-62
2023/08/25 05:44:41;;;;;;;20.50;15.32;;;19.40;99.90;;;;;;5068091;28;20052;-62
2023/08/25 05:47:07;;;;;;;18.42;14.25;;;19.40;99.90;;;;;;5068275;28;20448;-63
2023/08/25 05:49:34;;;;;;;20.20;13.80;;;19.40;99.90;;;;;;5059040;28;20182;-62
2023/08/25 05:52:00;;;;;;;23.77;14.40;;;19.40;99.90;;;;;;5067674;28;20078;-62
2023/08/25 05:54:25;;;;;;;23.58;15.00;;;19.40;99.90;;;;;;5057348;28;20052;-63
2023/08/25 05:56:53;;;;;;;23.38;15.23;;;19.40;99.90;;;;;;5064107;28;20422;-62
2023/08/25 05:59:19;;;;;;;21.83;15.30;;;19.40;99.90;;;;;;5068749;28;20086;-62
2023/08/25 06:01:45;;;;;;;26.58;16.52;;;19.40;99.90;;;;;;5083361;28;20037;-62
2023/08/25 06:04:10;;;;;;;21.05;14.68;;;19.40;99.90;;;;;;5080416;28;20905;-62
2023/08/25 06:06:38;;;;;;;23.05;14.95;;;19.50;99.90;;;;;;5050289;28;20043;-62
2023/08/25 06:09:05;;;;;;;24.23;16.20;;;19.50;99.90;;;;;;5061030;28;20411;-63
2023/08/25 06:11:30;;;;;;;25.08;16.58;;;19.40;99.90;;;;;;5079874;28;20044;-63
2023/08/25 06:13:56;;;;;;;27.45;17.17;;;19.40;99.90;;;;;;5067128;28;20380;-63
2023/08/25 06:16:23;;;;;;;24.63;16.30;;;19.50;99.90;;;;;;5050923;28;20581;-62
2023/08/25 06:18:48;;;;;;;32.70;16.75;;;19.50;99.90;;;;;;5065865;28;20040;-63
2023/08/25 06:21:14;;;;;;;27.40;18.73;;;19.50;99.90;;;;;;5079494;28;20522;-62
2023/08/25 06:23:40;;;;;;;27.25;17.63;;;19.50;99.90;;;;;;5069907;28;20032;-62
2023/08/25 06:26:06;;;;;;;32.60;17.77;;;19.50;99.90;;;;;;5070715;28;20049;-63
2023/08/25 06:28:33;;;;;;;27.05;17.98;;;19.40;99.90;;;;;;5068410;28;20525;-63
2023/08/25 06:30:59;;;;;;;24.73;17.92;;;19.50;99.90;;;;;;5081858;28;20322;-62
2023/08/25 06:33:29;;;;;;;29.45;17.15;;;19.50;99.90;;;;;;5068714;28;20497;-63
2023/08/25 06:35:56;;;;;;;31.83;17.88;;;19.50;99.90;;;;;;5032141;28;20036;-63
2023/08/25 06:38:23;;;;;;;34.67;19.75;;;19.50;99.90;;;;;;5067794;28;20032;-63
2023/08/25 06:40:50;;;;;;;33.92;19.55;;;19.60;99.90;;;;;;5067045;28;20045;-62
2023/08/25 06:43:16;;;;;;;33.63;20.35;;;19.60;99.90;;;;;;5067930;28;20040;-63
2023/08/25 06:45:42;;;;;;;38.20;22.15;;;19.60;99.90;;;;;;5067999;28;20040;-62
2023/08/25 06:48:08;;;;;;;33.25;21.38;;;19.70;99.90;;;;;;5065745;28;20045;-63
2023/08/25 06:50:33;;;;;;;34.58;22.85;;;19.70;99.90;;;;;;5068160;28;20071;-63
2023/08/25 06:52:59;;;;;;;43.03;22.77;;;19.80;99.90;;;;;;5064720;28;20060;-62
2023/08/25 06:55:25;;;;;;;42.45;24.65;;;19.90;99.90;;;;;;5067812;28;20059;-62
2023/08/25 06:57:51;;;;;;;43.55;24.95;;;19.90;99.90;;;;;;5065764;28;20518;-62
2023/08/25 07:00:20;;;;;;;42.75;23.33;;;20.00;99.90;;;;;;5067989;28;20033;-63
2023/08/25 07:02:46;;;;;;;41.33;23.90;;;19.90;99.90;;;;;;5049319;28;20097;-62
2023/08/25 07:05:13;;;;;;;43.17;23.02;;;20.00;99.90;;;;;;5079476;28;20040;-62
2023/08/25 07:07:39;;;;;;;47.95;24.05;;;20.00;99.90;;;;;;5050364;28;20483;-62
2023/08/25 07:10:05;;;;;;;47.60;24.17;;;20.00;99.90;;;;;;5062314;28;20790;-62
2023/08/25 07:12:31;;;;;;;42.03;23.65;;;20.00;99.90;;;;;;5062125;28;20090;-63
2023/08/25 07:14:57;;;;;;;41.90;23.58;;;20.00;99.90;;;;;;5061227;28;20067;-62
2023/08/25 07:17:23;;;;;;;44.90;24.05;;;20.00;99.90;;;;;;5074922;28;20068;-63
2023/08/25 07:19:48;;;;;;;41.25;24.42;;;20.00;99.90;;;;;;5062693;28;20044;-62
2023/08/25 07:22:14;;;;;;;40.72;24.55;;;20.00;99.90;;;;;;5066690;28;20122;-62
2023/08/25 07:24:40;;;;;;;44.58;23.60;;;19.90;99.90;;;;;;5065722;28;20482;-63
2023/08/25 07:27:05;;;;;;;42.90;22.90;;;19.90;99.90;;;;;;5026422;28;20048;-63
2023/08/25 07:29:35;;;;;;;46.70;24.80;;;19.90;99.90;;;;;;5063501;28;20055;-63
2023/08/25 07:32:01;;;;;;;44.25;24.42;;;19.90;99.90;;;;;;5044061;28;20036;-63
2023/08/25 07:34:27;;;;;;;45.85;25.42;;;19.90;99.90;;;;;;5061688;28;20047;-63
2023/08/25 07:36:56;;;;;;;41.85;23.88;;;19.90;99.90;;;;;;5055677;28;20526;-62
2023/08/25 07:39:22;;;;;;;45.28;23.45;;;19.90;99.90;;;;;;5046722;28;20495;-63
2023/08/25 07:41:47;;;;;;;49.40;24.95;;;19.90;99.90;;;;;;5064973;28;20119;-62
2023/08/25 07:44:13;;;;;;;46.97;25.50;;;19.90;99.90;;;;;;5063551;28;20097;-63
2023/08/25 07:46:39;;;;;;;50.30;25.52;;;20.00;99.90;;;;;;5063481;28;20036;-63
2023/08/25 07:49:07;;;;;;;54.10;28.50;;;20.00;99.90;;;;;;5064476;28;20045;-63
2023/08/25 07:51:34;;;;;;;46.70;26.83;;;20.10;99.90;;;;;;5061887;28;20127;-63
2023/08/25 07:54:00;;;;;;;42.70;23.70;;;20.30;99.90;;;;;;5031272;28;20041;-63
2023/08/25 07:56:26;;;;;;;34.38;20.95;;;20.30;99.90;;;;;;5055434;28;20506;-62
2023/08/25 07:58:53;;;;;;;34.97;21.08;;;20.20;99.90;;;;;;5041221;28;20044;-62
2023/08/25 08:01:19;;;;;;;33.20;19.75;;;20.30;99.90;;;;;;5061061;28;20064;-62
2023/08/25 08:03:45;;;;;;;34.28;18.73;;;20.30;99.90;;;;;;5062474;28;20041;-63
2023/08/25 08:06:11;;;;;;;33.05;19.85;;;20.30;99.90;;;;;;5064807;28;20056;-63
2023/08/25 08:08:37;;;;;;;32.80;19.25;;;20.40;99.90;;;;;;5069873;28;20053;-62
2023/08/25 08:11:03;;;;;;;36.28;18.83;;;20.40;99.90;;;;;;5081536;28;20190;-62
2023/08/25 08:13:29;;;;;;;34.10;19.70;;;20.60;99.90;;;;;;5070357;28;20112;-63
2023/08/25 08:15:55;;;;;;;35.65;19.55;;;20.60;99.90;;;;;;5067344;28;20418;-62
2023/08/25 08:18:21;;;;;;;25.33;16.02;;;20.50;99.90;;;;;;5059333;28;20492;-62
2023/08/25 08:20:48;;;;;;;28.58;16.92;;;20.50;99.90;;;;;;5064685;28;20525;-62
2023/08/25 08:23:15;;;;;;;26.52;16.73;;;20.50;99.90;;;;;;5049706;28;20533;-62
2023/08/25 08:25:41;;;;;;;26.42;16.73;;;20.50;99.90;;;;;;5063770;28;20064;-62
2023/08/25 08:28:08;;;;;;;25.20;15.10;;;20.40;99.90;;;;;;5051458;28;20508;-63
2023/08/25 08:30:34;;;;;;;24.60;14.48;;;20.40;99.90;;;;;;5067067;28;20055;-62
2023/08/25 08:33:00;;;;;;;22.98;12.90;;;20.40;99.90;;;;;;5062885;28;20032;-62
2023/08/25 08:35:26;;;;;;;19.17;12.05;;;20.40;99.90;;;;;;5065849;28;20559;-63
2023/08/25 08:37:52;;;;;;;20.00;12.60;;;20.40;99.90;;;;;;5062773;28;20047;-63
2023/08/25 08:40:20;;;;;;;20.52;11.98;;;20.50;99.90;;;;;;5042186;28;20119;-62
2023/08/25 08:42:48;;;;;;;19.45;12.85;;;20.60;99.90;;;;;;5011744;28;20048;-62
2023/08/25 08:45:17;;;;;;;20.98;12.95;;;20.50;99.90;;;;;;5052466;28;20049;-63
2023/08/25 08:47:44;;;;;;;19.83;11.85;;;20.50;99.90;;;;;;5056762;28;20060;-62
2023/08/25 08:50:10;;;;;;;19.33;10.95;;;20.70;99.90;;;;;;5043097;28;20051;-62
2023/08/25 08:52:36;;;;;;;17.70;10.82;;;20.80;99.90;;;;;;5041652;28;20341;-63
2023/08/25 08:55:05;;;;;;;18.67;10.23;;;21.10;99.90;;;;;;5039117;28;20386;-62
2023/08/25 08:57:31;;;;;;;18.77;9.73;;;21.20;99.90;;;;;;5059070;28;20063;-63
2023/08/25 09:00:08;;;;;;;19.88;9.48;;;21.30;99.90;;;;;;5064014;28;20478;-63
2023/08/25 09:02:35;;;;;;;19.88;8.77;;;21.40;99.90;;;;;;5054857;28;20120;-63
2023/08/25 09:05:02;;;;;;;17.05;9.30;;;21.70;99.90;;;;;;5031181;28;20060;-62
2023/08/25 09:07:31;;;;;;;15.38;8.70;;;21.90;99.90;;;;;;5037669;28;20410;-63
2023/08/25 09:09:58;;;;;;;17.20;8.20;;;22.00;99.90;;;;;;5054639;28;20064;-64
2023/08/25 09:12:24;;;;;;;15.48;7.72;;;21.90;99.90;;;;;;5040236;28;20048;-63
2023/08/25 09:14:49;;;;;;;16.63;7.93;;;21.70;99.90;;;;;;5056693;28;20045;-62
2023/08/25 09:17:15;;;;;;;16.13;9.48;;;21.60;99.90;;;;;;5058344;28;20037;-63
2023/08/25 09:19:42;;;;;;;11.90;7.85;;;21.50;99.90;;;;;;5037919;28;20124;-62
2023/08/25 09:22:13;;;;;;;11.00;7.13;;;21.40;99.90;;;;;;5043459;28;20498;-62
2023/08/25 09:24:42;;;;;;;14.45;7.43;;;21.30;99.90;;;;;;5046245;28;20041;-63
2023/08/25 09:27:24;;;;;;;;;;;21.30;99.90;;;;;;5035055;28;20036;-63
2023/08/25 09:30:03;;;;;;;14.60;7.20;;;21.30;99.90;;;;;;5016725;28;20388;-63
2023/08/25 09:32:29;;;;;;;17.95;7.75;;;21.20;99.90;;;;;;5055245;28;20098;-63
2023/08/25 09:34:55;;;;;;;13.77;8.15;;;21.20;99.90;;;;;;5034687;28;20048;-63
2023/08/25 09:37:21;;;;;;;13.23;7.47;;;21.20;99.90;;;;;;5044958;28;20043;-63
2023/08/25 09:39:47;;;;;;;11.57;7.25;;;21.10;99.90;;;;;;5057500;28;20040;-63
2023/08/25 09:42:13;;;;;;;14.85;7.68;;;21.10;99.90;;;;;;5063213;28;20040;-63
2023/08/25 09:44:39;;;;;;;12.15;7.22;;;21.10;99.90;;;;;;5038735;28;20033;-62
2023/08/25 09:47:06;;;;;;;10.98;7.65;;;21.00;99.90;;;;;;5040210;28;20123;-62
2023/08/25 09:49:39;;;;;;;16.00;7.43;;;21.00;99.90;;;;;;5052438;28;20132;-62
2023/08/25 09:52:11;;;;;;;10.48;6.93;;;21.00;99.90;;;;;;5062169;28;20552;-61
2023/08/25 09:54:38;;;;;;;10.10;6.20;;;20.90;99.90;;;;;;5062492;28;20091;-62
2023/08/25 09:57:04;;;;;;;36.47;10.70;;;21.00;99.90;;;;;;5044203;28;20566;-62
2023/08/25 09:59:30;;;;;;;18.67;7.53;;;21.00;99.90;;;;;;5024251;28;20055;-62
2023/08/25 10:01:57;;;;;;;11.15;6.88;;;21.10;99.90;;;;;;5048040;28;20041;-62
2023/08/25 10:04:24;;;;;;;16.02;6.82;;;21.10;99.90;;;;;;5043179;28;20044;-62
2023/08/25 10:06:50;;;;;;;13.88;6.90;;;21.10;99.90;;;;;;5038233;28;20045;-62
2023/08/25 10:09:18;;;;;;;13.60;6.95;;;21.10;99.90;;;;;;5040292;28;20481;-62
2023/08/25 10:11:45;;;;;;;13.25;6.57;;;21.10;99.90;;;;;;5056983;28;20166;-63
2023/08/25 10:14:12;;;;;;;14.88;6.43;;;21.10;99.90;;;;;;5037231;28;20044;-62
2023/08/25 10:16:51;;;;;;;9.13;5.65;;;21.10;99.90;;;;;;5046074;28;20121;-62
2023/08/25 10:19:23;;;;;;;8.57;4.97;;;21.00;99.90;;;;;;5063798;28;20052;-62
2023/08/25 10:21:51;;;;;;;12.77;5.00;;;21.00;99.90;;;;;;5044705;28;21810;-62
2023/08/25 10:24:25;;;;;;;8.98;5.28;;;20.90;99.90;;;;;;5055659;28;20041;-62
2023/08/25 10:26:52;;;;;;;8.68;4.68;;;20.90;99.90;;;;;;5062248;28;20044;-62
2023/08/25 10:29:22;;;;;;;11.90;4.72;;;20.80;99.90;;;;;;5034266;28;20419;-62
2023/08/25 10:31:49;;;;;;;11.75;5.22;;;20.80;99.90;;;;;;5039137;28;20086;-62
2023/08/25 10:34:36;;;;;;;11.50;5.22;;;20.80;99.90;;;;;;5047907;28;20063;-62
2023/08/25 10:37:07;;;;;;;8.88;4.50;;;20.80;99.90;;;;;;5058386;28;20529;-62
2023/08/25 10:40:06;;;;;;;7.38;4.70;;;20.80;99.90;;;;;;5041273;28;20502;-61
2023/08/25 10:42:33;;;;;;;;;;;20.80;99.90;;;;;;5057687;28;20043;-62
2023/08/25 10:45:01;;;;;;;6.07;4.65;;;20.80;99.90;;;;;;5060191;28;19920;-61
2023/08/25 10:47:27;;;;;;;12.37;5.77;;;20.70;99.90;;;;;;5058992;28;20047;-62
2023/08/25 10:50:00;;;;;;;8.73;5.85;;;20.70;99.90;;;;;;5057751;28;20076;-62
2023/08/25 10:52:26;;;;;;;8.57;5.70;;;20.60;99.90;;;;;;5051492;28;20065;-61
2023/08/25 10:54:53;;;;;;;14.05;6.25;;;20.60;99.90;;;;;;5052951;28;20072;-62
2023/08/25 10:57:29;;;;;;;13.18;5.70;;;20.60;99.90;;;;;;5053737;28;20497;-62
2023/08/25 11:00:44;;;;;;;12.48;6.00;;;20.60;99.90;;;;;;5047137;28;20393;-63
2023/08/25 11:03:10;;;;;;;13.00;7.10;;;20.50;99.90;;;;;;5056666;28;20105;-63
2023/08/25 11:05:38;;;;;;;10.55;6.97;;;20.50;99.90;;;;;;5063774;28;20385;-63
2023/08/25 11:08:22;;;;;;;10.55;6.35;;;20.50;99.90;;;;;;5058459;28;20045;-63
2023/08/25 11:11:07;;;;;;;15.32;7.22;;;20.50;99.90;;;;;;5015625;28;20479;-63
2023/08/25 11:13:36;;;;;;;11.45;7.00;;;20.50;99.90;;;;;;5082095;28;20052;-64
2023/08/25 11:16:06;;;;;;;12.30;7.07;;;20.60;99.90;;;;;;5060137;28;20077;-63
2023/08/25 11:18:32;;;;;;;11.13;7.15;;;20.50;99.90;;;;;;5061203;28;20083;-63
2023/08/25 11:21:00;;;;;;;10.73;6.90;;;20.50;99.90;;;;;;5035325;28;20131;-64
2023/08/25 11:23:35;;;;;;;10.18;7.38;;;20.50;99.90;;;;;;5046567;28;20052;-64
2023/08/25 11:26:01;;;;;;;14.50;7.88;;;20.50;99.90;;;;;;5054775;28;20048;-63
2023/08/25 11:28:27;;;;;;;15.35;7.60;;;20.50;99.90;;;;;;5022158;28;20044;-64
2023/08/25 11:30:53;;;;;;;13.30;7.38;;;20.50;99.90;;;;;;5061188;28;20112;-63
2023/08/25 11:33:21;;;;;;;13.00;7.82;;;20.40;99.90;;;;;;5051009;28;20421;-63
2023/08/25 11:35:47;;;;;;;14.55;8.32;;;20.40;99.90;;;;;;5049321;28;20467;-64
2023/08/25 11:38:13;;;;;;;12.90;7.72;;;20.30;99.90;;;;;;5047875;28;20075;-64
2023/08/25 11:40:41;;;;;;;14.32;8.77;;;20.20;99.90;;;;;;5060104;28;20080;-64
2023/08/25 11:43:07;;;;;;;17.65;9.45;;;20.20;99.90;;;;;;5066948;28;20056;-64
2023/08/25 11:45:33;;;;;;;15.50;9.80;;;20.20;99.90;;;;;;5047562;28;20628;-64
2023/08/25 11:47:59;;;;;;;21.35;10.85;;;20.20;99.90;;;;;;5066139;28;20098;-63
2023/08/25 11:50:25;;;;;;;18.35;10.95;;;20.20;99.90;;;;;;5044342;28;20055;-63
2023/08/25 11:52:51;;;;;;;22.65;11.40;;;20.10;99.90;;;;;;5039966;28;20033;-64
2023/08/25 11:55:17;;;;;;;14.05;10.60;;;20.20;99.90;;;;;;5032289;28;20055;-64
2023/08/25 11:57:49;;;;;;;18.08;9.30;;;20.10;99.90;;;;;;5058305;28;20080;-63
2023/08/25 12:00:15;;;;;;;19.27;10.10;;;20.00;99.90;;;;;;5032606;28;20417;-63
2023/08/25 12:02:41;;;;;;;20.67;10.95;;;20.00;99.90;;;;;;5063677;28;20048;-63
2023/08/25 12:05:07;;;;;;;23.35;11.43;;;20.10;99.90;;;;;;5061039;28;20102;-63
2023/08/25 12:07:33;;;;;;;17.08;11.00;;;20.10;99.90;;;;;;5047859;28;20617;-63
2023/08/25 12:10:00;;;;;;;19.10;10.73;;;20.10;99.90;;;;;;5034960;28;20117;-63
2023/08/25 12:12:38;;;;;;;21.02;10.23;;;20.00;99.90;;;;;;5062899;28;20124;-63
2023/08/25 12:15:08;;;;;;;19.50;10.00;;;20.00;99.90;;;;;;5055543;28;20400;-63
2023/08/25 12:17:36;;;;;;;21.02;8.52;;;20.00;99.90;;;;;;5046694;28;20123;-63
2023/08/25 12:20:13;;;;;;;15.50;8.77;;;20.00;99.90;;;;;;5066369;28;20048;-63
2023/08/25 12:22:57;;;;;;;17.80;10.20;;;20.00;99.90;;;;;;5011668;28;20410;-64
2023/08/25 12:25:23;;;;;;;20.10;9.70;;;20.00;99.90;;;;;;5045624;28;20371;-63
2023/08/25 12:27:50;;;;;;;19.83;10.05;;;20.00;99.90;;;;;;5060425;28;20444;-64
2023/08/25 12:30:16;;;;;;;19.98;9.35;;;20.00;99.90;;;;;;5062392;28;20084;-64
2023/08/25 12:32:42;;;;;;;20.23;9.30;;;20.00;99.90;;;;;;5063506;28;20044;-64
2023/08/25 12:35:08;;;;;;;22.33;9.68;;;20.00;99.90;;;;;;5060656;28;20048;-64